Time,TemperatureF,DewpointF,PressureIn,WindDirection,WindDirectionDegrees,WindSpeedMPH,WindSpeedGustMPH,Humidity,HourlyPrecipIn,Conditions,Clouds,dailyrainin,SolarRadiationWatts/m^2,SoftwareType,DateUTC
2013-02-22 00:13:00,74.0,70.0,30.05,East,98,9.0,-999.0,87,-99.99,,,0.00,0,weatherlink.com 1.10,2013-02-22 05:13:00,
2013-02-22 00:28:00,74.0,70.0,30.05,East,101,7.0,-999.0,87,-99.99,,,0.00,0,weatherlink.com 1.10,2013-02-22 05:28:00,
2013-02-22 00:43:00,74.0,70.0,30.05,East,99,8.0,-999.0,88,-99.99,,,0.00,0,weatherlink.com 1.10,2013-02-22 05:43:00,
2013-02-22 00:58:00,74.1,70.0,30.05,East,101,5.0,-999.0,88,-99.99,,,0.00,0,weatherlink.com 1.10,2013-02-22 05:58:00,
2013-02-22 01:13:00,73.9,71.0,30.05,ESE,107,2.0,-999.0,89,-99.99,,,0.00,0,weatherlink.com 1.10,2013-02-22 06:13:00,
2013-02-22 01:28:00,73.8,71.0,30.04,ESE,107,6.0,-999.0,90,-99.99,,,0.00,0,weatherlink.com 1.10,2013-02-22 06:28:00,
2013-02-22 01:43:00,73.6,71.0,30.04,ESE,112,5.0,-999.0,90,-99.99,,,0.00,0,weatherlink.com 1.10,2013-02-22 06:43:00,
2013-02-22 01:58:00,73.7,71.0,30.04,ESE,114,2.0,-999.0,90,-99.99,,,0.00,0,weatherlink.com 1.10,2013-02-22 06:58:00,
2013-02-22 02:13:00,73.5,71.0,30.03,ESE,114,5.0,-999.0,90,-99.99,,,0.00,0,weatherlink.com 1.10,2013-02-22 07:13:00,
2013-02-22 02:28:00,73.6,71.0,30.03,ESE,113,8.0,-999.0,90,-99.99,,,0.00,0,weatherlink.com 1.10,2013-02-22 07:28:00,
2013-02-22 02:43:00,73.6,71.0,30.02,ESE,118,11.0,-999.0,90,-99.99,,,0.00,0,weatherlink.com 1.10,2013-02-22 07:43:00,
2013-02-22 02:58:00,73.5,71.0,30.03,ESE,121,6.0,-999.0,91,-99.99,,,0.00,0,weatherlink.com 1.10,2013-02-22 07:58:00,
2013-02-22 03:13:00,73.3,71.0,30.02,ESE,121,7.0,-999.0,91,-99.99,,,0.00,0,weatherlink.com 1.10,2013-02-22 08:13:00,
2013-02-22 03:28:00,73.2,71.0,30.02,ESE,115,6.0,-999.0,91,-99.99,,,0.00,0,weatherlink.com 1.10,2013-02-22 08:28:00,
2013-02-22 03:43:00,73.3,71.0,30.02,ESE,123,7.0,-999.0,91,-99.99,,,0.00,0,weatherlink.com 1.10,2013-02-22 08:43:00,
2013-02-22 03:58:00,73.4,71.0,30.02,ESE,118,7.0,-999.0,91,-99.99,,,0.00,0,weatherlink.com 1.10,2013-02-22 08:58:00,
2013-02-22 04:13:00,73.4,71.0,30.03,ESE,119,12.0,-999.0,91,-99.99,,,0.00,0,weatherlink.com 1.10,2013-02-22 09:13:00,
2013-02-22 04:28:00,73.4,71.0,30.03,ESE,119,7.0,-999.0,91,-99.99,,,0.00,0,weatherlink.com 1.10,2013-02-22 09:28:00,
2013-02-22 04:43:00,73.3,71.0,30.03,ESE,122,6.0,-999.0,91,-99.99,,,0.00,0,weatherlink.com 1.10,2013-02-22 09:43:00,
2013-02-22 04:58:00,73.3,71.0,30.03,ESE,104,12.0,-999.0,91,-99.99,,,0.00,0,weatherlink.com 1.10,2013-02-22 09:58:00,
2013-02-22 05:13:00,73.5,71.0,30.04,East,101,11.0,-999.0,91,-99.99,,,0.00,0,weatherlink.com 1.10,2013-02-22 10:13:00,
2013-02-22 05:28:00,73.5,71.0,30.04,ESE,107,6.0,-999.0,90,-99.99,,,0.00,0,weatherlink.com 1.10,2013-02-22 10:28:00,
2013-02-22 05:43:00,73.3,70.0,30.05,ESE,106,8.0,-999.0,90,-99.99,,,0.00,0,weatherlink.com 1.10,2013-02-22 10:43:00,
2013-02-22 05:58:00,73.3,70.0,30.05,ESE,102,6.0,-999.0,90,-99.99,,,0.00,0,weatherlink.com 1.10,2013-02-22 10:58:00,
2013-02-22 06:13:00,73.1,70.0,30.06,ESE,119,11.0,-999.0,90,-99.99,,,0.00,0,weatherlink.com 1.10,2013-02-22 11:13:00,
2013-02-22 06:28:00,73.3,70.0,30.05,ESE,120,12.0,-999.0,90,-99.99,,,0.00,0,weatherlink.com 1.10,2013-02-22 11:28:00,
2013-02-22 06:43:00,73.2,70.0,30.06,ESE,117,7.0,-999.0,89,-99.99,,,0.00,0,weatherlink.com 1.10,2013-02-22 11:43:00,
2013-02-22 06:58:00,73.5,70.0,30.06,ESE,119,12.0,-999.0,89,-99.99,,,0.00,9,weatherlink.com 1.10,2013-02-22 11:58:00,
2013-02-22 07:13:00,73.6,70.0,30.07,ESE,119,12.0,-999.0,88,-99.99,,,0.00,18,weatherlink.com 1.10,2013-02-22 12:13:00,
2013-02-22 07:28:00,74.0,70.0,30.08,SE,126,12.0,-999.0,87,-99.99,,,0.00,25,weatherlink.com 1.10,2013-02-22 12:28:00,
2013-02-22 07:43:00,74.4,70.0,30.09,ESE,120,8.0,-999.0,87,-99.99,,,0.00,32,weatherlink.com 1.10,2013-02-22 12:43:00,
2013-02-22 07:59:00,74.7,70.0,30.09,ESE,123,6.0,-999.0,86,-99.99,,,0.00,35,weatherlink.com 1.10,2013-02-22 12:59:00,
2013-02-22 08:14:00,75.2,71.0,30.09,ESE,121,9.0,-999.0,85,-99.99,,,0.00,39,weatherlink.com 1.10,2013-02-22 13:14:00,
2013-02-22 08:29:00,75.6,71.0,30.10,ESE,121,5.0,-999.0,86,-99.99,,,0.00,47,weatherlink.com 1.10,2013-02-22 13:29:00,
2013-02-22 08:44:00,75.7,71.0,30.10,ESE,119,7.0,-999.0,85,-99.99,,,0.00,49,weatherlink.com 1.10,2013-02-22 13:44:00,
2013-02-22 08:59:00,75.9,71.0,30.11,ESE,119,4.0,-999.0,85,-99.99,,,0.00,116,weatherlink.com 1.10,2013-02-22 13:59:00,
2013-02-22 09:14:00,76.7,71.0,30.11,SE,130,6.0,-999.0,83,-99.99,,,0.00,98,weatherlink.com 1.10,2013-02-22 14:14:00,
2013-02-22 09:29:00,77.0,72.0,30.10,SE,134,11.0,-999.0,83,-99.99,,,0.00,401,weatherlink.com 1.10,2013-02-22 14:29:00,
2013-02-22 09:44:00,77.2,72.0,30.11,SE,134,5.0,-999.0,83,-99.99,,,0.00,533,weatherlink.com 1.10,2013-02-22 14:44:00,
2013-02-22 09:59:00,77.3,72.0,30.11,SE,132,7.0,-999.0,83,-99.99,,,0.00,578,weatherlink.com 1.10,2013-02-22 14:59:00,
2013-02-22 10:14:00,77.3,71.0,30.11,SE,132,7.0,-999.0,82,-99.99,,,0.00,656,weatherlink.com 1.10,2013-02-22 15:14:00,
2013-02-22 10:29:00,78.0,72.0,30.11,SE,133,8.0,-999.0,82,-99.99,,,0.00,661,weatherlink.com 1.10,2013-02-22 15:29:00,
2013-02-22 10:44:00,78.3,72.0,30.11,SE,136,9.0,-999.0,81,-99.99,,,0.00,701,weatherlink.com 1.10,2013-02-22 15:44:00,
2013-02-22 10:59:00,78.5,73.0,30.11,SE,126,5.0,-999.0,82,-99.99,,,0.00,737,weatherlink.com 1.10,2013-02-22 15:59:00,
2013-02-22 11:14:00,78.7,72.0,30.11,SE,128,8.0,-999.0,81,-99.99,,,0.00,679,weatherlink.com 1.10,2013-02-22 16:14:00,
2013-02-22 11:29:00,78.5,73.0,30.11,SE,134,4.0,-999.0,82,-99.99,,,0.00,779,weatherlink.com 1.10,2013-02-22 16:29:00,
2013-02-22 11:44:00,78.8,73.0,30.10,SE,132,6.0,-999.0,81,-99.99,,,0.00,800,weatherlink.com 1.10,2013-02-22 16:44:00,
2013-02-22 11:59:00,78.7,72.0,30.10,SE,125,4.0,-999.0,81,-99.99,,,0.00,810,weatherlink.com 1.10,2013-02-22 16:59:00,
2013-02-22 12:14:00,79.6,73.0,30.09,ESE,121,5.0,-999.0,80,-99.99,,,0.00,821,weatherlink.com 1.10,2013-02-22 17:14:00,
2013-02-22 12:29:00,79.6,73.0,30.09,ESE,118,6.0,-999.0,79,-99.99,,,0.00,830,weatherlink.com 1.10,2013-02-22 17:29:00,
2013-02-22 12:44:00,79.6,73.0,30.09,ESE,117,6.0,-999.0,80,-99.99,,,0.00,828,weatherlink.com 1.10,2013-02-22 17:44:00,
2013-02-22 12:59:00,78.7,73.0,30.08,ESE,118,9.0,-999.0,82,-99.99,,,0.00,740,weatherlink.com 1.10,2013-02-22 17:59:00,
2013-02-22 13:14:00,78.8,73.0,30.07,ESE,119,4.0,-999.0,82,-99.99,,,0.00,800,weatherlink.com 1.10,2013-02-22 18:14:00,
2013-02-22 13:29:00,78.9,73.0,30.07,ESE,117,11.0,-999.0,82,-99.99,,,0.00,780,weatherlink.com 1.10,2013-02-22 18:29:00,
2013-02-22 13:44:00,78.9,73.0,30.06,ESE,117,11.0,-999.0,82,-99.99,,,0.00,740,weatherlink.com 1.10,2013-02-22 18:44:00,
2013-02-22 13:59:00,79.3,73.0,30.06,ESE,119,5.0,-999.0,82,-99.99,,,0.00,682,weatherlink.com 1.10,2013-02-22 18:59:00,
2013-02-22 14:14:00,79.3,73.0,30.06,ESE,116,6.0,-999.0,82,-99.99,,,0.00,624,weatherlink.com 1.10,2013-02-22 19:14:00,
2013-02-22 14:29:00,79.5,73.0,30.05,ESE,115,6.0,-999.0,81,-99.99,,,0.00,529,weatherlink.com 1.10,2013-02-22 19:29:00,
2013-02-22 14:44:00,79.3,73.0,30.05,ESE,115,12.0,-999.0,81,-99.99,,,0.00,432,weatherlink.com 1.10,2013-02-22 19:44:00,
2013-02-22 14:59:00,79.0,73.0,30.05,ESE,115,6.0,-999.0,81,-99.99,,,0.00,318,weatherlink.com 1.10,2013-02-22 19:59:00,
2013-02-22 15:15:00,78.9,73.0,30.04,ESE,114,8.0,-999.0,82,-99.99,,,0.00,209,weatherlink.com 1.10,2013-02-22 20:15:00,
2013-02-22 15:29:00,78.7,73.0,30.04,ESE,117,6.0,-999.0,82,-99.99,,,0.00,134,weatherlink.com 1.10,2013-02-22 20:29:00,
2013-02-22 15:45:00,78.6,73.0,30.04,SE,124,2.0,-999.0,82,-99.99,,,0.00,79,weatherlink.com 1.10,2013-02-22 20:45:00,
2013-02-22 16:00:00,78.5,73.0,30.04,ESE,115,4.0,-999.0,82,-99.99,,,0.00,84,weatherlink.com 1.10,2013-02-22 21:00:00,
2013-02-22 16:15:00,78.5,73.0,30.05,ESE,119,5.0,-999.0,82,-99.99,,,0.00,93,weatherlink.com 1.10,2013-02-22 21:15:00,
2013-02-22 16:30:00,78.3,73.0,30.04,ESE,115,5.0,-999.0,83,-99.99,,,0.00,76,weatherlink.com 1.10,2013-02-22 21:30:00,
2013-02-22 16:45:00,78.0,73.0,30.04,ESE,123,6.0,-999.0,83,-99.99,,,0.00,76,weatherlink.com 1.10,2013-02-22 21:45:00,
2013-02-22 17:00:00,77.9,72.0,30.04,ESE,117,5.0,-999.0,83,-99.99,,,0.00,90,weatherlink.com 1.10,2013-02-22 22:00:00,
2013-02-22 17:15:00,77.3,73.0,30.04,ESE,115,6.0,-999.0,85,-99.99,,,0.00,141,weatherlink.com 1.10,2013-02-22 22:15:00,
2013-02-22 17:30:00,77.0,72.0,30.04,ESE,117,5.0,-999.0,85,-99.99,,,0.00,127,weatherlink.com 1.10,2013-02-22 22:30:00,
2013-02-22 18:00:00,76.2,72.0,30.04,ESE,120,8.0,-999.0,87,-99.99,,,0.00,28,weatherlink.com 1.10,2013-02-22 23:00:00,
2013-02-22 18:15:00,75.9,72.0,30.05,ESE,119,9.0,-999.0,88,-99.99,,,0.00,9,weatherlink.com 1.10,2013-02-22 23:15:00,
2013-02-22 18:30:00,75.6,72.0,30.05,ESE,122,7.0,-999.0,89,-99.99,,,0.00,0,weatherlink.com 1.10,2013-02-22 23:30:00,
2013-02-22 18:45:00,75.5,72.0,30.05,ESE,119,8.0,-999.0,89,-99.99,,,0.00,0,weatherlink.com 1.10,2013-02-22 23:45:00,
2013-02-22 19:00:00,75.4,72.0,30.05,ESE,119,4.0,-999.0,89,-99.99,,,0.00,0,weatherlink.com 1.10,2013-02-23 00:00:00,
2013-02-22 19:15:00,75.3,72.0,30.05,ESE,117,5.0,-999.0,89,-99.99,,,0.00,0,weatherlink.com 1.10,2013-02-23 00:15:00,
2013-02-22 19:30:00,75.3,72.0,30.06,ESE,102,7.0,-999.0,89,-99.99,,,0.00,0,weatherlink.com 1.10,2013-02-23 00:30:00,
2013-02-22 19:45:00,75.3,72.0,30.06,ESE,105,8.0,-999.0,89,-99.99,,,0.00,0,weatherlink.com 1.10,2013-02-23 00:45:00,
2013-02-22 20:00:00,75.4,72.0,30.07,ESE,103,6.0,-999.0,89,-99.99,,,0.00,0,weatherlink.com 1.10,2013-02-23 01:00:00,
2013-02-22 20:15:00,75.4,72.0,30.07,East,100,8.0,-999.0,89,-99.99,,,0.00,0,weatherlink.com 1.10,2013-02-23 01:15:00,
2013-02-22 20:30:00,75.4,72.0,30.08,ESE,103,5.0,-999.0,89,-99.99,,,0.00,0,weatherlink.com 1.10,2013-02-23 01:30:00,
2013-02-22 20:45:00,75.2,72.0,30.07,ESE,113,5.0,-999.0,89,-99.99,,,0.00,0,weatherlink.com 1.10,2013-02-23 01:45:00,
2013-02-22 21:00:00,75.2,72.0,30.08,ESE,120,6.0,-999.0,90,-99.99,,,0.00,0,weatherlink.com 1.10,2013-02-23 02:00:00,
2013-02-22 21:15:00,75.1,72.0,30.08,ESE,123,7.0,-999.0,89,-99.99,,,0.00,0,weatherlink.com 1.10,2013-02-23 02:15:00,
2013-02-22 21:30:00,75.1,72.0,30.08,ESE,123,7.0,-999.0,89,-99.99,,,0.00,0,weatherlink.com 1.10,2013-02-23 02:30:00,
2013-02-22 21:45:00,75.2,72.0,30.08,ESE,121,13.0,-999.0,88,-99.99,,,0.00,0,weatherlink.com 1.10,2013-02-23 02:45:00,
2013-02-22 22:00:00,75.3,72.0,30.08,ESE,122,4.0,-999.0,88,-99.99,,,0.00,0,weatherlink.com 1.10,2013-02-23 03:00:00,
2013-02-22 22:15:00,75.1,71.0,30.08,ESE,111,7.0,-999.0,88,-99.99,,,0.00,0,weatherlink.com 1.10,2013-02-23 03:15:00,
2013-02-22 22:30:00,75.2,72.0,30.08,ESE,121,5.0,-999.0,88,-99.99,,,0.00,0,weatherlink.com 1.10,2013-02-23 03:30:00,
2013-02-22 22:45:00,75.2,72.0,30.08,ESE,121,8.0,-999.0,88,-99.99,,,0.00,0,weatherlink.com 1.10,2013-02-23 03:45:00,
2013-02-22 23:00:00,75.2,72.0,30.07,ESE,117,5.0,-999.0,88,-99.99,,,0.00,0,weatherlink.com 1.10,2013-02-23 04:00:00,
2013-02-22 23:15:00,75.1,71.0,30.07,ESE,120,4.0,-999.0,87,-99.99,,,0.00,0,weatherlink.com 1.10,2013-02-23 04:15:00,
2013-02-22 23:30:00,75.2,71.0,30.06,ESE,115,7.0,-999.0,87,-99.99,,,0.00,0,weatherlink.com 1.10,2013-02-23 04:30:00,
2013-02-22 23:45:00,75.2,71.0,30.06,ESE,118,11.0,-999.0,87,-99.99,,,0.00,0,weatherlink.com 1.10,2013-02-23 04:45:00,